Terminal Aerodrome Forecast
Issued by NWS Jackson, KY

Home | Current Version | Previous Version | Text Only | Print | Product List | Glossary On
Versions: 1 2 3 4 5 6 7 8 9 10 11 12 13 14 15
000
FTUS43 KJKL 301736
TAFLOZ
TAF
KLOZ 301736Z 3018/0118 21004KT P6SM -SHRA OVC070
     FM302200 17006KT 5SM -SHRA VCTS OVC020CB
     FM010700 VRB03KT 3SM -SHRA VCTS OVC030CB
     FM010900 00000KT 5SM -SHRA OVC035
     FM011500 22007KT P6SM VCSH BKN050=

USA.gov is the U.S. government's official web portal to all federal, state and local government web resources and services.